sensor_id;sensor_type;location;lat;lon;timestamp;pressure;altitude;pressure_sealevel;temperature;humidity
58775;BME280;44545;47.480;19.024;2023-05-15T03:12:54;99458.66;;;11.75;100.00
58775;BME280;44545;47.480;19.024;2023-05-15T03:15:59;99463.66;;;11.69;100.00
58775;BME280;44545;47.480;19.024;2023-05-15T03:19:02;99454.94;;;11.68;100.00
58775;BME280;44545;47.480;19.024;2023-05-15T03:22:05;99446.22;;;11.68;100.00
58775;BME280;44545;47.480;19.024;2023-05-15T03:25:09;99437.50;;;11.67;100.00
58775;BME280;44545;47.480;19.024;2023-05-15T03:28:12;99443.81;;;11.74;100.00
58775;BME280;44545;47.480;19.024;2023-05-15T03:31:14;99423.34;;;11.86;100.00
58775;BME280;44545;47.480;19.024;2023-05-15T03:34:17;99422.13;;;12.02;100.00
58775;BME280;44545;47.480;19.024;2023-05-15T03:37:19;99405.66;;;12.05;100.00
58775;BME280;44545;47.480;19.024;2023-05-15T03:40:23;99411.81;;;12.05;100.00
58775;BME280;44545;47.480;19.024;2023-05-15T03:43:25;99411.12;;;12.11;100.00
58775;BME280;44545;47.480;19.024;2023-05-15T03:46:27;99411.12;;;12.12;100.00
58775;BME280;44545;47.480;19.024;2023-05-15T03:49:29;99402.50;;;12.15;100.00
58775;BME280;44545;47.480;19.024;2023-05-15T03:52:32;99401.72;;;12.18;100.00
58775;BME280;44545;47.480;19.024;2023-05-15T03:55:34;99410.56;;;11.94;100.00
58775;BME280;44545;47.480;19.024;2023-05-15T03:58:37;99411.28;;;11.90;100.00
58775;BME280;44545;47.480;19.024;2023-05-15T04:01:39;99407.50;;;12.07;100.00
58775;BME280;44545;47.480;19.024;2023-05-15T04:05:04;99408.66;;;12.16;100.00
58775;BME280;44545;47.480;19.024;2023-05-15T04:08:07;99400.19;;;12.24;100.00
58775;BME280;44545;47.480;19.024;2023-05-15T04:11:11;99400.38;;;12.30;100.00
58775;BME280;44545;47.480;19.024;2023-05-15T04:14:13;99391.81;;;12.34;100.00
58775;BME280;44545;47.480;19.024;2023-05-15T04:17:16;99386.66;;;12.37;100.00
58775;BME280;44545;47.480;19.024;2023-05-15T04:20:20;99372.78;;;12.39;100.00
58775;BME280;44545;47.480;19.024;2023-05-15T04:23:23;99375.28;;;12.35;100.00
58775;BME280;44545;47.480;19.024;2023-05-15T04:26:25;99391.81;;;12.34;100.00
58775;BME280;44545;47.480;19.024;2023-05-15T04:29:28;99383.78;;;12.28;100.00
58775;BME280;44545;47.480;19.024;2023-05-15T04:32:30;99376.03;;;12.31;100.00
58775;BME280;44545;47.480;19.024;2023-05-15T04:35:35;99374.75;;;12.46;100.00
58775;BME280;44545;47.480;19.024;2023-05-15T04:38:37;99395.38;;;12.36;100.00
58775;BME280;44545;47.480;19.024;2023-05-15T04:41:39;99407.00;;;12.19;100.00
58775;BME280;44545;47.480;19.024;2023-05-15T04:44:41;99408.41;;;12.08;100.00
58775;BME280;44545;47.480;19.024;2023-05-15T04:47:46;99400.19;;;11.97;100.00
58775;BME280;44545;47.480;19.024;2023-05-15T04:50:48;99411.66;;;12.01;100.00
58775;BME280;44545;47.480;19.024;2023-05-15T04:53:51;99415.22;;;12.03;100.00
58775;BME280;44545;47.480;19.024;2023-05-15T04:56:53;99414.69;;;12.14;100.00
58775;BME280;44545;47.480;19.024;2023-05-15T04:59:55;99439.84;;;12.11;100.00
58775;BME280;44545;47.480;19.024;2023-05-15T05:02:59;99445.91;;;12.10;100.00
58775;BME280;44545;47.480;19.024;2023-05-15T05:06:01;99454.06;;;12.19;100.00
58775;BME280;44545;47.480;19.024;2023-05-15T05:09:04;99448.34;;;12.31;100.00
58775;BME280;44545;47.480;19.024;2023-05-15T05:12:07;99449.41;;;12.37;100.00
58775;BME280;44545;47.480;19.024;2023-05-15T05:15:10;99449.06;;;12.54;100.00
58775;BME280;44545;47.480;19.024;2023-05-15T05:18:12;99448.47;;;12.63;100.00
58775;BME280;44545;47.480;19.024;2023-05-15T05:21:14;99463.91;;;12.55;100.00
58775;BME280;44545;47.480;19.024;2023-05-15T05:24:17;99463.19;;;12.59;100.00
58775;BME280;44545;47.480;19.024;2023-05-15T05:27:19;99462.41;;;12.63;100.00
58775;BME280;44545;47.480;19.024;2023-05-15T05:30:23;99462.16;;;12.83;100.00
58775;BME280;44545;47.480;19.024;2023-05-15T05:33:25;99458.97;;;12.93;100.00
58775;BME280;44545;47.480;19.024;2023-05-15T05:36:27;99447.19;;;12.78;100.00
58775;BME280;44545;47.480;19.024;2023-05-15T05:39:30;99446.38;;;12.79;100.00
58775;BME280;44545;47.480;19.024;2023-05-15T05:42:32;99434.88;;;12.74;100.00
58775;BME280;44545;47.480;19.024;2023-05-15T05:45:35;99437.91;;;12.88;100.00
58775;BME280;44545;47.480;19.024;2023-05-15T05:48:37;99443.72;;;13.08;100.00
58775;BME280;44545;47.480;19.024;2023-05-15T05:51:40;99448.34;;;13.17;100.00
58775;BME280;44545;47.480;19.024;2023-05-15T05:54:42;99450.66;;;13.36;100.00
58775;BME280;44545;47.480;19.024;2023-05-15T05:57:47;99455.22;;;13.75;100.00
58775;BME280;44545;47.480;19.024;2023-05-15T06:00:49;99466.94;;;13.90;100.00
58775;BME280;44545;47.480;19.024;2023-05-15T06:03:52;99468.72;;;13.91;100.00
58775;BME280;44545;47.480;19.024;2023-05-15T06:06:54;99458.25;;;13.92;100.00
58775;BME280;44545;47.480;19.024;2023-05-15T06:09:57;99441.50;;;14.20;100.00
58775;BME280;44545;47.480;19.024;2023-05-15T06:12:59;99443.66;;;14.37;100.00
58775;BME280;44545;47.480;19.024;2023-05-15T06:16:02;99447.06;;;14.70;100.00
58775;BME280;44545;47.480;19.024;2023-05-15T06:19:04;99461.84;;;14.65;100.00
58775;BME280;44545;47.480;19.024;2023-05-15T06:22:08;99465.50;;;14.36;100.00
58775;BME280;44545;47.480;19.024;2023-05-15T06:25:10;99466.50;;;14.42;100.00
58775;BME280;44545;47.480;19.024;2023-05-15T06:28:15;99461.19;;;14.76;100.00
58775;BME280;44545;47.480;19.024;2023-05-15T06:31:17;99473.00;;;14.96;100.00
58775;BME280;44545;47.480;19.024;2023-05-15T06:34:20;99474.03;;;15.03;100.00
58775;BME280;44545;47.480;19.024;2023-05-15T06:37:22;99473.00;;;14.94;100.00
58775;BME280;44545;47.480;19.024;2023-05-15T06:40:24;99474.78;;;14.58;100.00
58775;BME280;44545;47.480;19.024;2023-05-15T06:43:27;99463.91;;;14.79;100.00
58775;BME280;44545;47.480;19.024;2023-05-15T06:46:29;99452.66;;;14.86;100.00
58775;BME280;44545;47.480;19.024;2023-05-15T06:49:32;99440.94;;;15.11;100.00
58775;BME280;44545;47.480;19.024;2023-05-15T06:52:34;99435.81;;;15.61;100.00
58775;BME280;44545;47.480;19.024;2023-05-15T06:55:36;99431.00;;;15.84;100.00
58775;BME280;44545;47.480;19.024;2023-05-15T06:58:39;99432.25;;;16.04;100.00
58775;BME280;44545;47.480;19.024;2023-05-15T07:01:41;99429.22;;;16.33;100.00
58775;BME280;44545;47.480;19.024;2023-05-15T07:04:44;99425.91;;;16.48;100.00
58775;BME280;44545;47.480;19.024;2023-05-15T07:07:46;99440.12;;;16.59;100.00
58775;BME280;44545;47.480;19.024;2023-05-15T07:10:48;99440.25;;;16.67;100.00
58775;BME280;44545;47.480;19.024;2023-05-15T07:13:51;99444.53;;;16.60;100.00
58775;BME280;44545;47.480;19.024;2023-05-15T07:16:54;99451.94;;;16.28;100.00
58775;BME280;44545;47.480;19.024;2023-05-15T07:19:56;99448.84;;;16.00;100.00
58775;BME280;44545;47.480;19.024;2023-05-15T07:22:59;99449.59;;;15.95;100.00
58775;BME280;44545;47.480;19.024;2023-05-15T07:26:01;99466.47;;;15.62;100.00
58775;BME280;44545;47.480;19.024;2023-05-15T07:29:04;99470.03;;;16.10;100.00
58775;BME280;44545;47.480;19.024;2023-05-15T07:32:06;99487.31;;;15.95;100.00
58775;BME280;44545;47.480;19.024;2023-05-15T07:35:09;99491.47;;;15.82;100.00
58775;BME280;44545;47.480;19.024;2023-05-15T07:38:12;99474.81;;;15.84;100.00
58775;BME280;44545;47.480;19.024;2023-05-15T07:41:14;99465.66;;;15.63;100.00
58775;BME280;44545;47.480;19.024;2023-05-15T07:44:17;99448.62;;;15.90;100.00
58775;BME280;44545;47.480;19.024;2023-05-15T07:47:19;99448.41;;;16.28;100.00
58775;BME280;44545;47.480;19.024;2023-05-15T07:50:21;99449.72;;;16.56;100.00
58775;BME280;44545;47.480;19.024;2023-05-15T07:53:24;99450.88;;;16.75;100.00
58775;BME280;44545;47.480;19.024;2023-05-15T07:56:27;99453.94;;;17.02;100.00
58775;BME280;44545;47.480;19.024;2023-05-15T07:59:29;99443.63;;;17.21;100.00
58775;BME280;44545;47.480;19.024;2023-05-15T08:02:32;99451.06;;;17.57;100.00
58775;BME280;44545;47.480;19.024;2023-05-15T08:05:34;99464.22;;;17.52;100.00
58775;BME280;44545;47.480;19.024;2023-05-15T08:08:37;99478.94;;;17.35;100.00
58775;BME280;44545;47.480;19.024;2023-05-15T08:11:39;99476.19;;;17.26;100.00
58775;BME280;44545;47.480;19.024;2023-05-15T08:14:41;99472.16;;;17.57;100.00
58775;BME280;44545;47.480;19.024;2023-05-15T08:17:44;99467.44;;;18.08;100.00
58775;BME280;44545;47.480;19.024;2023-05-15T08:20:46;99476.94;;;17.89;100.00
58775;BME280;44545;47.480;19.024;2023-05-15T08:23:49;99476.97;;;17.93;100.00
58775;BME280;44545;47.480;19.024;2023-05-15T08:26:54;99469.06;;;17.93;100.00
58775;BME280;44545;47.480;19.024;2023-05-15T08:29:57;99480.47;;;17.91;100.00
58775;BME280;44545;47.480;19.024;2023-05-15T08:32:59;99486.28;;;17.61;100.00
58775;BME280;44545;47.480;19.024;2023-05-15T08:36:04;99482.84;;;17.68;100.00
58775;BME280;44545;47.480;19.024;2023-05-15T08:39:07;99481.75;;;17.50;100.00
58775;BME280;44545;47.480;19.024;2023-05-15T08:43:05;99484.38;;;17.49;100.00
58775;BME280;44545;47.480;19.024;2023-05-15T08:45:58;99483.31;;;17.33;100.00
58775;BME280;44545;47.480;19.024;2023-05-15T08:49:09;99465.56;;;17.97;100.00
58775;BME280;44545;47.480;19.024;2023-05-15T08:52:12;99458.03;;;18.40;100.00
58775;BME280;44545;47.480;19.024;2023-05-15T08:55:16;99453.53;;;19.91;94.81
58775;BME280;44545;47.480;19.024;2023-05-15T08:58:19;99455.31;;;20.70;82.88
58775;BME280;44545;47.480;19.024;2023-05-15T09:01:27;99448.25;;;20.77;82.35
58775;BME280;44545;47.480;19.024;2023-05-15T09:04:29;99447.72;;;21.97;76.07
58775;BME280;44545;47.480;19.024;2023-05-15T09:07:32;99448.25;;;20.37;79.97
58775;BME280;44545;47.480;19.024;2023-05-15T09:10:35;99457.81;;;19.57;86.51
58775;BME280;44545;47.480;19.024;2023-05-15T09:13:37;99477.16;;;19.43;89.08
58775;BME280;44545;47.480;19.024;2023-05-15T09:16:39;99484.91;;;19.05;91.28
58775;BME280;44545;47.480;19.024;2023-05-15T09:19:42;99477.09;;;19.28;86.04
58775;BME280;44545;47.480;19.024;2023-05-15T09:22:44;99481.75;;;20.01;85.34
58775;BME280;44545;47.480;19.024;2023-05-15T09:25:47;99490.63;;;20.37;77.83
58775;BME280;44545;47.480;19.024;2023-05-15T09:29:01;99492.34;;;19.90;80.34
58775;BME280;44545;47.480;19.024;2023-05-15T09:32:07;99504.28;;;18.99;81.53
58775;BME280;44545;47.480;19.024;2023-05-15T09:38:40;99508.16;;;19.67;80.37
58775;BME280;44545;47.480;19.024;2023-05-15T09:41:43;99512.66;;;18.51;85.77
58775;BME280;44545;47.480;19.024;2023-05-15T09:44:46;99513.91;;;18.96;88.07
58775;BME280;44545;47.480;19.024;2023-05-15T09:47:48;99513.16;;;19.18;87.35
58775;BME280;44545;47.480;19.024;2023-05-15T09:50:51;99511.50;;;19.30;86.33
58775;BME280;44545;47.480;19.024;2023-05-15T09:53:54;99501.56;;;22.17;76.24
58775;BME280;44545;47.480;19.024;2023-05-15T09:57:06;99502.41;;;23.27;63.06
58775;BME280;44545;47.480;19.024;2023-05-15T10:00:09;99507.22;;;21.60;69.08
58775;BME280;44545;47.480;19.024;2023-05-15T10:03:13;99506.50;;;20.88;75.87
58775;BME280;44545;47.480;19.024;2023-05-15T10:06:19;99508.25;;;21.03;72.97
58775;BME280;44545;47.480;19.024;2023-05-15T10:09:28;99509.03;;;21.41;70.59
58775;BME280;44545;47.480;19.024;2023-05-15T10:12:33;99503.97;;;22.53;65.17
58775;BME280;44545;47.480;19.024;2023-05-15T10:15:38;99502.41;;;25.04;56.22
58775;BME280;44545;47.480;19.024;2023-05-15T10:18:43;99501.91;;;24.29;55.30
58775;BME280;44545;47.480;19.024;2023-05-15T10:21:46;99491.69;;;24.00;57.27
58775;BME280;44545;47.480;19.024;2023-05-15T10:24:54;99502.56;;;23.12;60.41
58775;BME280;44545;47.480;19.024;2023-05-15T10:27:59;99504.44;;;21.83;62.75
58775;BME280;44545;47.480;19.024;2023-05-15T10:31:03;99510.91;;;21.03;66.57
58775;BME280;44545;47.480;19.024;2023-05-15T10:34:07;99499.25;;;22.84;62.98
58775;BME280;44545;47.480;19.024;2023-05-15T10:37:11;99496.75;;;24.74;56.85
58775;BME280;44545;47.480;19.024;2023-05-15T10:40:16;99501.44;;;25.56;49.67
58775;BME280;44545;47.480;19.024;2023-05-15T10:43:19;99491.97;;;26.22;49.66
58775;BME280;44545;47.480;19.024;2023-05-15T10:46:22;99495.12;;;26.38;46.65
58775;BME280;44545;47.480;19.024;2023-05-15T10:49:25;99499.41;;;26.83;43.97
58775;BME280;44545;47.480;19.024;2023-05-15T10:52:32;99500.53;;;25.99;47.08
58775;BME280;44545;47.480;19.024;2023-05-15T10:55:35;99510.50;;;23.89;53.84
58775;BME280;44545;47.480;19.024;2023-05-15T10:58:38;99511.00;;;22.61;57.24
58775;BME280;44545;47.480;19.024;2023-05-15T11:01:41;99509.75;;;21.77;60.62
58775;BME280;44545;47.480;19.024;2023-05-15T11:04:43;99505.44;;;23.68;54.95
58775;BME280;44545;47.480;19.024;2023-05-15T11:18:04;99493.34;;;26.01;45.23
58775;BME280;44545;47.480;19.024;2023-05-15T11:21:08;99486.28;;;27.39;43.50
58775;BME280;44545;47.480;19.024;2023-05-15T11:24:10;99483.28;;;26.12;45.49
58775;BME280;44545;47.480;19.024;2023-05-15T11:27:18;99484.94;;;24.36;49.97
58775;BME280;44545;47.480;19.024;2023-05-15T11:30:21;99481.44;;;22.95;56.46
58775;BME280;44545;47.480;19.024;2023-05-15T11:33:28;99478.94;;;23.58;54.51
58775;BME280;44545;47.480;19.024;2023-05-15T11:36:31;99489.59;;;22.77;55.18
58775;BME280;44545;47.480;19.024;2023-05-15T11:39:38;99490.00;;;22.29;55.59
58775;BME280;44545;47.480;19.024;2023-05-15T11:42:40;99481.69;;;21.23;58.63
58775;BME280;44545;47.480;19.024;2023-05-15T11:45:46;99490.47;;;21.35;59.46
58775;BME280;44545;47.480;19.024;2023-05-15T11:48:49;99487.91;;;21.11;61.08
58775;BME280;44545;47.480;19.024;2023-05-15T11:51:51;99480.03;;;20.85;62.60
58775;BME280;44545;47.480;19.024;2023-05-15T11:54:54;99484.41;;;20.81;62.02
58775;BME280;44545;47.480;19.024;2023-05-15T11:57:56;99485.28;;;20.91;62.98
58775;BME280;44545;47.480;19.024;2023-05-15T12:00:58;99483.59;;;20.71;62.73
58775;BME280;44545;47.480;19.024;2023-05-15T12:04:01;99484.44;;;20.41;62.67
58775;BME280;44545;47.480;19.024;2023-05-15T12:07:04;99487.06;;;20.07;65.28
58775;BME280;44545;47.480;19.024;2023-05-15T12:10:09;99485.31;;;20.06;67.90
58775;BME280;44545;47.480;19.024;2023-05-15T12:13:13;99478.25;;;20.08;66.94
58775;BME280;44545;47.480;19.024;2023-05-15T12:16:16;99480.88;;;20.48;64.75
58775;BME280;44545;47.480;19.024;2023-05-15T12:19:26;99489.63;;;21.24;62.53
58775;BME280;44545;47.480;19.024;2023-05-15T12:22:35;99482.63;;;21.09;59.65
58775;BME280;44545;47.480;19.024;2023-05-15T12:25:37;99490.59;;;20.83;64.49
58775;BME280;44545;47.480;19.024;2023-05-15T12:28:40;99479.12;;;20.13;75.79
58775;BME280;44545;47.480;19.024;2023-05-15T12:31:42;99483.53;;;19.99;71.70
58775;BME280;44545;47.480;19.024;2023-05-15T12:34:45;99494.12;;;20.18;67.75
58775;BME280;44545;47.480;19.024;2023-05-15T12:37:48;99501.22;;;20.45;69.97
58775;BME280;44545;47.480;19.024;2023-05-15T12:40:51;99506.53;;;20.69;64.77
58775;BME280;44545;47.480;19.024;2023-05-15T12:43:58;99503.00;;;20.56;66.88
58775;BME280;44545;47.480;19.024;2023-05-15T12:47:00;99493.28;;;20.23;67.18
58775;BME280;44545;47.480;19.024;2023-05-15T12:50:13;99495.03;;;20.35;66.20
58775;BME280;44545;47.480;19.024;2023-05-15T12:53:21;99501.19;;;20.35;65.56
58775;BME280;44545;47.480;19.024;2023-05-15T12:56:23;99492.41;;;20.70;62.29
58775;BME280;44545;47.480;19.024;2023-05-15T12:59:25;99479.09;;;20.93;62.10
58775;BME280;44545;47.480;19.024;2023-05-15T13:02:28;99475.44;;;21.31;62.44
58775;BME280;44545;47.480;19.024;2023-05-15T13:05:32;99478.91;;;21.56;62.47
58775;BME280;44545;47.480;19.024;2023-05-15T13:08:41;99475.34;;;21.68;60.38
58775;BME280;44545;47.480;19.024;2023-05-15T13:11:44;99459.44;;;21.63;60.22
58775;BME280;44545;47.480;19.024;2023-05-15T13:14:46;99468.28;;;21.66;60.15
58775;BME280;44545;47.480;19.024;2023-05-15T13:18:08;99470.03;;;21.63;58.83
58775;BME280;44545;47.480;19.024;2023-05-15T13:21:11;99468.47;;;21.12;59.74
58775;BME280;44545;47.480;19.024;2023-05-15T13:24:13;99457.75;;;21.38;60.49
58775;BME280;44545;47.480;19.024;2023-05-15T13:27:15;99460.47;;;21.27;58.63
58775;BME280;44545;47.480;19.024;2023-05-15T13:30:18;99451.47;;;21.65;61.03
58775;BME280;44545;47.480;19.024;2023-05-15T13:33:20;99457.59;;;21.73;57.71
58775;BME280;44545;47.480;19.024;2023-05-15T13:36:23;99448.94;;;21.37;59.43
58775;BME280;44545;47.480;19.024;2023-05-15T13:39:25;99456.12;;;21.03;62.09
58775;BME280;44545;47.480;19.024;2023-05-15T13:42:27;99454.41;;;20.87;62.50
58775;BME280;44545;47.480;19.024;2023-05-15T13:49:06;99453.53;;;20.40;64.34
58775;BME280;44545;47.480;19.024;2023-05-15T13:52:08;99453.50;;;19.82;67.29
58775;BME280;44545;47.480;19.024;2023-05-15T13:55:11;99455.13;;;19.46;71.21
58775;BME280;44545;47.480;19.024;2023-05-15T13:58:14;99447.22;;;19.46;74.14
58775;BME280;44545;47.480;19.024;2023-05-15T14:01:16;99453.38;;;19.51;72.31
58775;BME280;44545;47.480;19.024;2023-05-15T14:04:18;99459.53;;;19.42;75.35
58775;BME280;44545;47.480;19.024;2023-05-15T14:07:22;99461.22;;;19.26;77.31
58775;BME280;44545;47.480;19.024;2023-05-15T14:10:24;99462.81;;;18.94;74.13
58775;BME280;44545;47.480;19.024;2023-05-15T14:13:27;99466.31;;;18.85;79.21
58775;BME280;44545;47.480;19.024;2023-05-15T14:16:32;99471.62;;;18.93;77.23
58775;BME280;44545;47.480;19.024;2023-05-15T14:19:35;99467.16;;;18.82;77.69
58775;BME280;44545;47.480;19.024;2023-05-15T14:22:38;99473.16;;;18.61;77.14
58775;BME280;44545;47.480;19.024;2023-05-15T14:25:41;99466.00;;;18.45;80.38
58775;BME280;44545;47.480;19.024;2023-05-15T14:28:43;99466.06;;;18.54;79.09
58775;BME280;44545;47.480;19.024;2023-05-15T14:31:47;99469.63;;;18.56;79.05
58775;BME280;44545;47.480;19.024;2023-05-15T14:34:49;99472.31;;;18.67;81.08
58775;BME280;44545;47.480;19.024;2023-05-15T14:37:52;99474.00;;;18.57;79.64
58775;BME280;44545;47.480;19.024;2023-05-15T14:40:55;99474.78;;;18.42;81.69
58775;BME280;44545;47.480;19.024;2023-05-15T14:43:57;99471.19;;;18.34;81.17
58775;BME280;44545;47.480;19.024;2023-05-15T14:47:06;99480.69;;;18.11;85.22
58775;BME280;44545;47.480;19.024;2023-05-15T14:50:09;99485.81;;;17.95;87.35
58775;BME280;44545;47.480;19.024;2023-05-15T14:53:11;99496.88;;;17.67;93.09
58775;BME280;44545;47.480;19.024;2023-05-15T14:56:13;99491.66;;;17.71;94.48
58775;BME280;44545;47.480;19.024;2023-05-15T14:59:16;99495.22;;;17.76;96.37
58775;BME280;44545;47.480;19.024;2023-05-15T15:02:18;99498.75;;;17.75;98.12
58775;BME280;44545;47.480;19.024;2023-05-15T15:05:20;99501.25;;;17.66;95.34
58775;BME280;44545;47.480;19.024;2023-05-15T15:08:23;99509.12;;;17.60;99.77
58775;BME280;44545;47.480;19.024;2023-05-15T15:11:27;99506.59;;;17.71;98.58
58775;BME280;44545;47.480;19.024;2023-05-15T15:14:30;99504.13;;;17.85;97.62
58775;BME280;44545;47.480;19.024;2023-05-15T15:17:32;99501.38;;;17.77;95.85
